Time;durP1;ratioP1;P1;durP2;ratioP2;P2;SDS_P1;SDS_P2;PMS_P1;PMS_P2;Temp;Humidity;BMP_temperature;BMP_pressure;BME280_temperature;BME280_humidity;BME280_pressure;Samples;Min_cycle;Max_cycle;Signal;HPM_P1;HPM_P2
2023/05/23 00:02:12;;;;;;;8.98;5.18;;;19.00;67.20;;;;;;5064573;28;20047;-63
2023/05/23 00:04:38;;;;;;;10.13;5.43;;;18.90;67.10;;;;;;5072341;28;20021;-63
2023/05/23 00:07:04;;;;;;;9.48;5.15;;;19.00;67.50;;;;;;5068606;28;20025;-63
2023/05/23 00:09:30;;;;;;;8.15;5.18;;;19.00;67.10;;;;;;5062639;28;20133;-63
2023/05/23 00:11:56;;;;;;;10.73;6.30;;;19.00;67.20;;;;;;5063082;28;20052;-63
2023/05/23 00:14:22;;;;;;;9.68;6.30;;;18.90;67.30;;;;;;5065595;28;20016;-63
2023/05/23 00:16:48;;;;;;;9.80;6.30;;;18.90;67.40;;;;;;5069337;28;20031;-63
2023/05/23 00:19:15;;;;;;;9.35;5.55;;;18.90;67.50;;;;;;5069295;28;20025;-63
2023/05/23 00:21:47;;;;;;;12.48;6.32;;;18.90;67.60;;;;;;5064856;28;20020;-63
2023/05/23 00:24:13;;;;;;;9.43;5.35;;;18.90;67.60;;;;;;5072295;28;20041;-63
2023/05/23 00:26:39;;;;;;;9.52;5.70;;;18.90;67.60;;;;;;5071270;28;20492;-63
2023/05/23 00:29:05;;;;;;;9.50;5.03;;;18.90;67.70;;;;;;5070181;28;20060;-63
2023/05/23 00:31:31;;;;;;;11.70;6.10;;;18.80;67.70;;;;;;5063649;28;20041;-63
2023/05/23 00:33:56;;;;;;;10.55;6.38;;;18.90;67.90;;;;;;5072903;28;20025;-63
2023/05/23 00:36:22;;;;;;;11.15;5.85;;;18.90;68.00;;;;;;5067715;28;20024;-63
2023/05/23 00:38:48;;;;;;;10.82;5.82;;;18.80;68.00;;;;;;5065244;28;20028;-63
2023/05/23 00:41:14;;;;;;;9.88;6.25;;;18.80;68.10;;;;;;5071693;28;20452;-63
2023/05/23 00:43:40;;;;;;;12.68;6.45;;;18.80;68.20;;;;;;5066158;28;20079;-63
2023/05/23 00:46:07;;;;;;;11.45;6.22;;;18.80;68.40;;;;;;5057685;28;20450;-63
2023/05/23 00:48:33;;;;;;;11.02;6.57;;;18.70;68.40;;;;;;5057511;28;20115;-63
2023/05/23 00:50:59;;;;;;;11.45;6.72;;;18.70;68.70;;;;;;5067163;28;20236;-63
2023/05/23 00:53:25;;;;;;;12.70;6.70;;;18.70;69.00;;;;;;5063674;28;20379;-63
2023/05/23 00:55:51;;;;;;;12.38;6.45;;;18.60;69.10;;;;;;5070967;28;20037;-63
2023/05/23 00:58:18;;;;;;;13.00;7.57;;;18.60;69.30;;;;;;5063327;28;20025;-63
2023/05/23 01:00:44;;;;;;;14.43;7.10;;;18.60;69.50;;;;;;5071703;28;20464;-63
2023/05/23 01:03:16;;;;;;;13.07;6.78;;;18.60;69.70;;;;;;5063704;28;20625;-63
2023/05/23 01:05:43;;;;;;;12.13;6.50;;;18.50;69.90;;;;;;5071570;28;20020;-63
2023/05/23 01:08:09;;;;;;;11.93;6.05;;;18.50;70.20;;;;;;5070495;28;20143;-63
2023/05/23 01:10:35;;;;;;;11.82;6.45;;;18.50;70.30;;;;;;5073142;28;20104;-63
2023/05/23 01:13:08;;;;;;;10.88;6.28;;;18.50;70.30;;;;;;5068030;28;20115;-63
2023/05/23 01:15:50;;;;;;;12.13;6.50;;;18.40;70.50;;;;;;5063736;28;20041;-63
2023/05/23 01:18:40;;;;;;;11.38;7.20;;;18.40;70.50;;;;;;5073870;28;20086;-63
2023/05/23 01:21:11;;;;;;;14.52;6.82;;;18.40;70.60;;;;;;5073164;28;20027;-63
2023/05/23 01:24:15;;;;;;;13.48;6.38;;;18.40;70.70;;;;;;5072062;28;20143;-63
2023/05/23 01:27:14;;;;;;;12.10;6.45;;;18.40;70.70;;;;;;5071115;28;20039;-63
2023/05/23 01:29:46;;;;;;;13.90;6.57;;;18.40;70.70;;;;;;5064852;28;20158;-63
2023/05/23 01:32:14;;;;;;;12.15;6.40;;;18.30;70.90;;;;;;5072839;28;20016;-63
2023/05/23 01:34:41;;;;;;;10.50;6.07;;;18.30;71.00;;;;;;5070521;28;20036;-63
2023/05/23 01:37:13;;;;;;;12.75;6.15;;;18.30;71.00;;;;;;5074962;28;20467;-63
2023/05/23 01:39:39;;;;;;;11.02;5.93;;;18.30;71.20;;;;;;5061205;28;20043;-62
2023/05/23 01:42:06;;;;;;;12.18;5.60;;;18.30;71.30;;;;;;5088868;28;20033;-63
2023/05/23 01:44:34;;;;;;;16.65;6.72;;;18.30;71.30;;;;;;5074516;28;20408;-63
2023/05/23 01:47:02;;;;;;;11.98;5.90;;;18.30;71.20;;;;;;5074012;28;20053;-63
2023/05/23 01:49:30;;;;;;;14.20;6.25;;;18.30;71.20;;;;;;5072226;28;20128;-63
2023/05/23 01:51:56;;;;;;;12.88;6.05;;;18.30;71.20;;;;;;5067596;28;20036;-63
2023/05/23 01:54:22;;;;;;;10.10;5.32;;;18.30;71.10;;;;;;5063058;28;20024;-63
2023/05/23 01:56:49;;;;;;;10.45;5.80;;;18.30;71.20;;;;;;5073680;28;20028;-63
2023/05/23 01:59:15;;;;;;;10.43;5.53;;;18.20;71.20;;;;;;5073473;28;20373;-63
2023/05/23 02:01:41;;;;;;;10.23;5.35;;;18.20;71.10;;;;;;5056364;28;20016;-63
2023/05/23 02:04:08;;;;;;;10.25;5.60;;;18.20;71.10;;;;;;5073928;28;20117;-63
2023/05/23 02:06:34;;;;;;;12.10;6.07;;;18.20;71.80;;;;;;5072816;28;20052;-63
2023/05/23 02:08:59;;;;;;;11.45;5.72;;;18.20;71.10;;;;;;5066862;28;20437;-63
2023/05/23 02:11:25;;;;;;;11.63;6.43;;;18.30;71.10;;;;;;5071133;28;20017;-63
2023/05/23 02:13:51;;;;;;;12.25;6.07;;;18.20;71.00;;;;;;5057659;28;20060;-63
2023/05/23 02:16:17;;;;;;;11.82;5.30;;;18.20;71.10;;;;;;5065218;28;20480;-63
2023/05/23 02:18:45;;;;;;;10.20;5.40;;;18.20;71.20;;;;;;5070639;28;20361;-64
2023/05/23 02:21:11;;;;;;;9.73;5.60;;;18.20;71.90;;;;;;5065484;28;20024;-63
2023/05/23 02:23:37;;;;;;;9.63;5.40;;;18.10;71.30;;;;;;5074899;28;20421;-63
2023/05/23 02:26:03;;;;;;;10.93;5.50;;;18.10;71.30;;;;;;5066315;28;20039;-63
2023/05/23 02:28:28;;;;;;;12.13;6.30;;;18.10;71.30;;;;;;5071944;28;20024;-63
2023/05/23 02:30:54;;;;;;;13.90;6.32;;;18.10;71.30;;;;;;5072321;28;20040;-63
2023/05/23 02:33:20;;;;;;;10.10;5.75;;;18.10;72.00;;;;;;5073145;28;20028;-63
2023/05/23 02:35:48;;;;;;;10.10;5.82;;;18.10;71.30;;;;;;5068661;28;20029;-64
2023/05/23 02:38:14;;;;;;;11.50;5.45;;;18.10;71.30;;;;;;5067002;28;20024;-63
2023/05/23 02:40:40;;;;;;;9.57;4.93;;;18.10;71.30;;;;;;5070638;28;20103;-63
2023/05/23 02:43:06;;;;;;;11.20;5.75;;;18.10;71.30;;;;;;5067694;28;20442;-63
2023/05/23 02:45:32;;;;;;;11.38;5.63;;;18.10;71.40;;;;;;5062478;28;20495;-63
2023/05/23 02:47:58;;;;;;;10.73;5.72;;;18.10;71.40;;;;;;5056315;28;20115;-63
2023/05/23 02:50:24;;;;;;;9.82;5.95;;;18.10;71.40;;;;;;5061154;28;20111;-63
2023/05/23 02:52:50;;;;;;;11.65;5.68;;;18.00;71.30;;;;;;5072226;28;20032;-63
2023/05/23 02:55:16;;;;;;;10.88;5.88;;;18.00;71.40;;;;;;5073468;28;20020;-63
2023/05/23 02:57:45;;;;;;;9.73;5.47;;;18.00;71.30;;;;;;5067834;28;20048;-63
2023/05/23 03:00:12;;;;;;;13.48;6.72;;;18.10;71.40;;;;;;5070452;28;20048;-63
2023/05/23 03:02:38;;;;;;;13.65;6.10;;;18.00;71.30;;;;;;5062615;28;20430;-63
2023/05/23 03:05:05;;;;;;;12.65;6.65;;;18.00;71.30;;;;;;5056756;28;20029;-63
2023/05/23 03:07:32;;;;;;;11.65;6.10;;;18.00;71.20;;;;;;5070570;28;20024;-63
2023/05/23 03:09:59;;;;;;;13.15;6.88;;;18.00;71.20;;;;;;5072326;28;20464;-63
2023/05/23 03:12:27;;;;;;;10.45;5.75;;;18.00;71.30;;;;;;5068192;28;20025;-63
2023/05/23 03:14:52;;;;;;;10.82;6.05;;;17.90;71.30;;;;;;5073287;28;20024;-63
2023/05/23 03:17:18;;;;;;;12.00;5.70;;;17.90;71.30;;;;;;5067729;28;20024;-63
2023/05/23 03:19:44;;;;;;;12.80;5.65;;;17.90;71.30;;;;;;5055269;28;20026;-63
2023/05/23 03:22:10;;;;;;;10.73;5.63;;;17.90;71.30;;;;;;5058248;28;20086;-63
2023/05/23 03:24:35;;;;;;;13.27;5.75;;;17.90;71.40;;;;;;5072960;28;20044;-63
2023/05/23 03:27:01;;;;;;;9.88;5.20;;;17.90;71.50;;;;;;5072120;28;20024;-63
2023/05/23 03:29:27;;;;;;;8.88;4.55;;;17.80;71.50;;;;;;5054106;28;20024;-63
2023/05/23 03:31:53;;;;;;;9.25;4.60;;;17.80;71.60;;;;;;5070208;28;20369;-63
2023/05/23 03:34:19;;;;;;;9.02;5.00;;;17.80;71.70;;;;;;5071065;28;20020;-63
2023/05/23 03:36:44;;;;;;;10.13;4.68;;;17.80;71.70;;;;;;5072726;28;20023;-63
2023/05/23 03:39:11;;;;;;;9.77;4.20;;;17.70;71.60;;;;;;5063084;28;20066;-63
2023/05/23 03:41:36;;;;;;;10.35;4.80;;;17.70;71.60;;;;;;5059340;28;20024;-63
2023/05/23 03:44:02;;;;;;;10.73;4.50;;;17.80;71.70;;;;;;5049219;28;20476;-63
2023/05/23 03:46:28;;;;;;;9.27;4.57;;;17.80;71.50;;;;;;5066995;28;20538;-63
2023/05/23 03:48:54;;;;;;;10.50;4.97;;;17.80;71.40;;;;;;5066511;28;20028;-63
2023/05/23 03:51:21;;;;;;;9.25;4.75;;;17.80;71.30;;;;;;5070145;28;20035;-63
2023/05/23 03:53:47;;;;;;;9.75;4.40;;;17.80;71.30;;;;;;5071329;28;20025;-63
2023/05/23 03:56:13;;;;;;;9.23;4.85;;;17.80;71.20;;;;;;5063907;28;20048;-63
2023/05/23 03:58:39;;;;;;;8.70;4.90;;;17.80;71.10;;;;;;5062233;28;20028;-63
2023/05/23 04:01:10;;;;;;;10.30;5.57;;;17.70;71.00;;;;;;5068612;28;20346;-63
2023/05/23 04:03:36;;;;;;;10.68;5.50;;;17.80;70.90;;;;;;5069078;28;20086;-63
2023/05/23 04:06:03;;;;;;;11.13;5.13;;;17.80;70.80;;;;;;5068875;28;20024;-63
2023/05/23 04:08:32;;;;;;;12.20;5.00;;;17.80;70.80;;;;;;5064685;28;20067;-63
2023/05/23 04:11:00;;;;;;;8.30;4.63;;;17.80;70.70;;;;;;5061013;28;20436;-63
2023/05/23 04:13:27;;;;;;;9.18;4.80;;;17.80;70.60;;;;;;5061489;28;20510;-63
2023/05/23 04:15:56;;;;;;;9.60;5.07;;;17.80;70.40;;;;;;5059650;28;20075;-63
2023/05/23 04:18:23;;;;;;;10.85;5.97;;;17.80;70.40;;;;;;5065967;28;20116;-63
2023/05/23 04:20:49;;;;;;;13.00;5.93;;;17.80;70.40;;;;;;5070597;28;20111;-63
2023/05/23 04:23:15;;;;;;;10.02;5.13;;;17.80;70.40;;;;;;5063621;28;20450;-63
2023/05/23 04:25:44;;;;;;;12.57;5.40;;;17.80;70.30;;;;;;5070586;28;20047;-63
2023/05/23 04:28:16;;;;;;;10.98;5.40;;;17.80;70.20;;;;;;5059101;28;20025;-63
2023/05/23 04:30:43;;;;;;;13.15;6.35;;;17.90;70.20;;;;;;5061178;28;20045;-63
2023/05/23 04:33:10;;;;;;;12.52;5.85;;;17.90;70.00;;;;;;5068352;28;20031;-63
2023/05/23 04:35:39;;;;;;;9.88;5.00;;;17.90;70.00;;;;;;5069034;28;20039;-63
2023/05/23 04:38:05;;;;;;;12.35;6.43;;;17.90;69.90;;;;;;5054344;28;20021;-63
2023/05/23 04:40:32;;;;;;;13.15;6.03;;;17.80;69.80;;;;;;5065214;28;20024;-63
2023/05/23 04:43:09;;;;;;;11.20;6.10;;;17.80;69.70;;;;;;5069162;28;20035;-63
2023/05/23 04:45:48;;;;;;;11.88;5.90;;;17.80;69.60;;;;;;5065500;28;20441;-63
2023/05/23 04:48:26;;;;;;;13.00;6.18;;;17.80;69.50;;;;;;5067140;28;20025;-63
2023/05/23 04:50:54;;;;;;;11.50;5.75;;;17.80;69.40;;;;;;5058781;28;20468;-63
2023/05/23 04:53:21;;;;;;;13.15;6.93;;;17.70;69.40;;;;;;5073452;28;20036;-63
2023/05/23 04:55:47;;;;;;;10.48;5.88;;;17.70;69.60;;;;;;5074894;28;20165;-63
2023/05/23 04:58:16;;;;;;;17.10;6.20;;;17.70;69.60;;;;;;5068705;28;20031;-63
2023/05/23 05:00:42;;;;;;;10.32;5.55;;;17.70;69.40;;;;;;5062133;28;20107;-65
2023/05/23 05:03:08;;;;;;;11.05;6.03;;;17.70;69.30;;;;;;5072834;28;20024;-63
2023/05/23 05:05:37;;;;;;;12.02;5.38;;;17.70;69.30;;;;;;5052302;28;20021;-62
2023/05/23 05:08:03;;;;;;;13.15;6.32;;;17.70;69.30;;;;;;5071426;28;20378;-63
2023/05/23 05:10:29;;;;;;;13.13;6.22;;;17.70;69.40;;;;;;5072398;28;20028;-63
2023/05/23 05:12:54;;;;;;;15.73;6.07;;;17.70;69.30;;;;;;5061459;28;20033;-63
2023/05/23 05:15:21;;;;;;;12.82;6.00;;;17.70;69.30;;;;;;5076949;28;20017;-63
2023/05/23 05:17:52;;;;;;;13.98;6.35;;;17.60;69.30;;;;;;5072060;28;20103;-63
2023/05/23 05:20:20;;;;;;;12.02;5.32;;;17.60;69.40;;;;;;5075174;28;20034;-63
2023/05/23 05:22:46;;;;;;;12.90;5.40;;;17.60;69.50;;;;;;5075842;28;20111;-63
2023/05/23 05:25:12;;;;;;;15.00;6.95;;;17.60;69.50;;;;;;5063912;28;20086;-63
2023/05/23 05:27:39;;;;;;;12.65;5.90;;;17.60;69.60;;;;;;5091662;28;20030;-63
2023/05/23 05:30:08;;;;;;;13.35;6.13;;;17.60;69.60;;;;;;5070435;28;20039;-62
2023/05/23 05:32:45;;;;;;;14.18;5.93;;;17.50;69.60;;;;;;5074559;28;20032;-62
2023/05/23 05:35:12;;;;;;;15.25;6.03;;;17.50;69.70;;;;;;5070073;28;20057;-62
2023/05/23 05:37:40;;;;;;;12.40;5.35;;;17.50;69.60;;;;;;5072950;28;20028;-63
2023/05/23 05:40:07;;;;;;;12.25;5.40;;;17.50;69.60;;;;;;5068433;28;20056;-62
2023/05/23 05:42:35;;;;;;;11.63;4.70;;;17.50;69.60;;;;;;5071789;28;20040;-62
2023/05/23 05:45:01;;;;;;;12.80;5.07;;;17.50;69.60;;;;;;5066467;28;20028;-62
2023/05/23 05:47:28;;;;;;;11.73;4.78;;;17.50;69.60;;;;;;5069607;28;20029;-62
2023/05/23 05:49:54;;;;;;;13.82;5.15;;;17.40;69.50;;;;;;5072864;28;20464;-62
2023/05/23 05:52:20;;;;;;;13.07;4.97;;;17.40;69.40;;;;;;5066897;28;20060;-62
2023/05/23 05:54:46;;;;;;;10.57;4.90;;;17.40;69.40;;;;;;5069983;28;20107;-63
2023/05/23 05:57:12;;;;;;;11.45;5.00;;;17.40;69.40;;;;;;5066925;28;20024;-62
2023/05/23 05:59:37;;;;;;;10.30;4.53;;;17.30;69.20;;;;;;5069828;28;20020;-62
2023/05/23 06:02:03;;;;;;;9.52;4.55;;;17.30;69.20;;;;;;5065940;28;20025;-63
2023/05/23 06:04:30;;;;;;;17.08;5.82;;;17.30;69.20;;;;;;5069414;28;20059;-63
2023/05/23 06:06:57;;;;;;;11.98;4.13;;;17.20;69.10;;;;;;5067489;28;20481;-63
2023/05/23 06:09:22;;;;;;;10.57;4.43;;;17.20;69.20;;;;;;5057135;28;20055;-63
2023/05/23 06:11:48;;;;;;;12.65;4.55;;;17.10;69.10;;;;;;5049655;28;20021;-63
2023/05/23 06:14:14;;;;;;;10.27;4.68;;;17.20;69.20;;;;;;5066559;28;20360;-64
2023/05/23 06:16:43;;;;;;;10.10;4.22;;;17.10;69.00;;;;;;5069218;28;20025;-63
2023/05/23 06:19:09;;;;;;;11.75;4.60;;;17.10;69.00;;;;;;5062657;28;20032;-63
2023/05/23 06:21:36;;;;;;;11.13;4.13;;;17.10;68.80;;;;;;5073284;28;20030;-64
2023/05/23 06:24:04;;;;;;;10.98;4.03;;;17.20;68.90;;;;;;5064545;28;20366;-64
2023/05/23 06:26:30;;;;;;;9.57;4.00;;;17.20;68.70;;;;;;5068383;28;20032;-64
2023/05/23 06:28:56;;;;;;;10.98;4.35;;;17.20;68.60;;;;;;5072493;28;20027;-64
2023/05/23 06:31:22;;;;;;;10.73;4.63;;;17.20;68.50;;;;;;5071388;28;20120;-64
2023/05/23 06:33:47;;;;;;;10.25;4.70;;;17.20;68.30;;;;;;5060406;28;20028;-64
2023/05/23 06:36:13;;;;;;;11.88;4.75;;;17.20;68.10;;;;;;5063677;28;20032;-64
2023/05/23 06:38:39;;;;;;;8.48;3.85;;;17.10;67.90;;;;;;5060098;28;20040;-63
2023/05/23 06:41:06;;;;;;;10.70;4.35;;;17.10;67.80;;;;;;5066917;28;20019;-64
2023/05/23 06:43:33;;;;;;;11.80;4.15;;;17.10;67.50;;;;;;5065572;28;20383;-62
2023/05/23 06:46:21;;;;;;;11.52;4.28;;;17.20;67.50;;;;;;5070288;28;20376;-62
2023/05/23 06:48:47;;;;;;;12.50;4.35;;;17.10;67.20;;;;;;5070555;28;20032;-62
2023/05/23 06:51:13;;;;;;;9.85;4.00;;;17.20;67.00;;;;;;5057758;28;20017;-63
2023/05/23 06:53:39;;;;;;;11.50;4.50;;;17.20;66.80;;;;;;5065737;28;20095;-62
2023/05/23 06:56:05;;;;;;;9.23;3.67;;;17.20;66.50;;;;;;5062786;28;20028;-62
2023/05/23 06:58:38;;;;;;;13.18;4.45;;;17.20;66.20;;;;;;5062065;28;20380;-62
2023/05/23 07:01:04;;;;;;;11.65;4.22;;;17.30;66.00;;;;;;5058662;28;20024;-63
2023/05/23 07:03:32;;;;;;;11.18;4.10;;;17.20;65.70;;;;;;5060430;28;20349;-63
2023/05/23 07:06:03;;;;;;;9.73;4.03;;;17.30;65.40;;;;;;5073273;28;20142;-63
2023/05/23 07:08:29;;;;;;;11.40;4.82;;;17.30;65.00;;;;;;5072087;28;20025;-62
2023/05/23 07:11:00;;;;;;;10.25;4.18;;;17.40;64.80;;;;;;5072626;28;20408;-63
2023/05/23 07:13:30;;;;;;;9.45;4.18;;;17.50;64.60;;;;;;5057659;28;20033;-63
2023/05/23 07:15:56;;;;;;;10.32;3.95;;;17.60;64.30;;;;;;5057125;28;20070;-63
2023/05/23 07:18:22;;;;;;;10.88;4.45;;;17.80;63.70;;;;;;5071853;28;20056;-63
2023/05/23 07:20:48;;;;;;;12.65;4.47;;;18.20;62.90;;;;;;5071802;28;20394;-63
2023/05/23 07:23:17;;;;;;;8.88;3.80;;;18.40;61.80;;;;;;5069043;28;20048;-63
2023/05/23 07:25:46;;;;;;;10.55;4.53;;;18.60;60.90;;;;;;5068842;28;20370;-63
2023/05/23 07:28:21;;;;;;;9.32;4.78;;;18.80;60.00;;;;;;5067822;28;20027;-63
2023/05/23 07:30:47;;;;;;;11.85;4.15;;;18.90;59.50;;;;;;5080404;28;20091;-63
2023/05/23 07:33:13;;;;;;;9.57;3.92;;;19.00;59.10;;;;;;5082808;28;20021;-62
2023/05/23 07:35:40;;;;;;;10.70;4.05;;;19.00;58.80;;;;;;5063543;28;20079;-63
2023/05/23 07:38:06;;;;;;;10.50;4.00;;;19.10;58.30;;;;;;5062568;28;20034;-62
2023/05/23 07:40:32;;;;;;;10.18;4.22;;;19.10;57.80;;;;;;5080294;28;20020;-62
2023/05/23 07:42:59;;;;;;;10.50;3.65;;;19.10;57.70;;;;;;5058454;28;20537;-62
2023/05/23 07:45:25;;;;;;;11.35;4.53;;;19.20;57.20;;;;;;5056674;28;20073;-62
2023/05/23 07:47:51;;;;;;;12.10;4.50;;;19.20;57.00;;;;;;5059144;28;20052;-62
2023/05/23 07:50:17;;;;;;;11.10;4.30;;;19.50;56.60;;;;;;5053333;28;20101;-62
2023/05/23 07:52:43;;;;;;;9.38;3.85;;;19.80;56.20;;;;;;5061467;28;20024;-62
2023/05/23 07:55:13;;;;;;;11.13;3.90;;;20.20;55.50;;;;;;5062642;28;20070;-62
2023/05/23 07:57:39;;;;;;;14.65;4.32;;;20.50;54.80;;;;;;5059679;28;20431;-62
2023/05/23 08:00:06;;;;;;;9.68;3.90;;;20.70;54.20;;;;;;5062086;28;20064;-63
2023/05/23 08:02:40;;;;;;;9.77;3.83;;;20.70;54.10;;;;;;5062385;28;20037;-62
2023/05/23 08:05:09;;;;;;;8.65;3.63;;;20.50;54.20;;;;;;5052062;28;20028;-63
2023/05/23 08:07:36;;;;;;;8.77;3.80;;;20.30;54.40;;;;;;5054627;28;20453;-61
2023/05/23 08:10:03;;;;;;;8.52;3.08;;;20.10;54.70;;;;;;5059495;28;20060;-62
2023/05/23 08:12:29;;;;;;;6.93;2.97;;;20.00;55.10;;;;;;5065186;28;20370;-63
2023/05/23 08:15:23;;;;;;;6.20;2.40;;;19.80;55.30;;;;;;5060487;28;20028;-62
2023/05/23 08:17:55;;;;;;;7.32;2.50;;;19.70;55.50;;;;;;5058399;28;20017;-63
2023/05/23 08:20:29;;;;;;;7.63;2.65;;;19.40;55.80;;;;;;5064180;28;20020;-62
2023/05/23 08:22:59;;;;;;;10.13;2.63;;;19.20;56.10;;;;;;5068027;28;20048;-63
2023/05/23 08:25:29;;;;;;;7.07;2.42;;;19.10;56.40;;;;;;5056413;28;20437;-62
2023/05/23 08:27:57;;;;;;;8.45;2.20;;;18.90;56.30;;;;;;5058830;28;20028;-62
2023/05/23 08:30:36;;;;;;;7.30;2.40;;;18.80;56.50;;;;;;5067600;28;20052;-63
2023/05/23 08:33:03;;;;;;;7.50;2.25;;;18.90;56.50;;;;;;5064931;28;20027;-62
2023/05/23 08:35:35;;;;;;;7.95;2.70;;;19.20;56.10;;;;;;5060304;28;20504;-63
2023/05/23 08:38:06;;;;;;;9.95;2.67;;;19.30;55.50;;;;;;5058278;28;20027;-62
2023/05/23 08:40:34;;;;;;;8.63;2.50;;;19.50;55.10;;;;;;5059515;28;20021;-62
2023/05/23 08:43:09;;;;;;;8.00;2.70;;;19.50;55.00;;;;;;5062838;28;20032;-61
2023/05/23 08:45:36;;;;;;;10.57;2.72;;;19.50;54.80;;;;;;5065306;28;20024;-63
2023/05/23 08:48:07;;;;;;;6.95;2.25;;;19.60;54.90;;;;;;5057283;28;20065;-63
2023/05/23 08:50:38;;;;;;;9.77;2.75;;;19.70;54.60;;;;;;5060190;28;20087;-63
2023/05/23 08:53:07;;;;;;;8.85;2.67;;;19.70;54.30;;;;;;5067174;28;20501;-63
2023/05/23 08:55:36;;;;;;;8.10;2.22;;;19.80;54.10;;;;;;5064662;28;20070;-63
2023/05/23 08:58:02;;;;;;;9.45;2.50;;;19.70;54.40;;;;;;5071162;28;20405;-63
2023/05/23 09:00:52;;;;;;;9.15;2.70;;;19.60;54.50;;;;;;5069636;28;20052;-62
2023/05/23 09:03:18;;;;;;;7.45;2.38;;;19.40;54.40;;;;;;5079387;28;20377;-62
2023/05/23 09:06:20;;;;;;;8.00;2.80;;;19.30;54.50;;;;;;5041759;28;20029;-63
2023/05/23 09:08:46;;;;;;;9.70;2.42;;;19.30;54.70;;;;;;5061583;28;20533;-63
2023/05/23 09:11:14;;;;;;;10.55;3.10;;;19.20;54.70;;;;;;5058562;28;20020;-62
2023/05/23 09:13:42;;;;;;;12.27;3.15;;;19.30;54.50;;;;;;5062018;28;20480;-62
2023/05/23 09:16:11;;;;;;;8.82;2.63;;;19.40;54.40;;;;;;5052415;28;20040;-63
2023/05/23 09:18:47;;;;;;;10.55;2.63;;;19.40;54.00;;;;;;5061478;28;20033;-63
2023/05/23 09:21:15;;;;;;;8.13;2.20;;;19.40;53.50;;;;;;5063451;28;20025;-62
2023/05/23 09:24:00;;;;;;;7.95;2.75;;;19.50;53.30;;;;;;5065231;28;20040;-63
2023/05/23 09:26:27;;;;;;;7.38;2.28;;;19.80;52.80;;;;;;5058227;28;20025;-63
2023/05/23 09:28:58;;;;;;;7.65;2.58;;;19.90;52.40;;;;;;5065447;28;21148;-63
2023/05/23 09:31:29;;;;;;;6.20;2.10;;;19.90;52.10;;;;;;5065180;28;20036;-63
2023/05/23 09:33:57;;;;;;;10.65;2.60;;;19.90;51.90;;;;;;5065227;28;20016;-63
2023/05/23 09:36:27;;;;;;;10.82;3.22;;;20.00;51.90;;;;;;5070027;28;20107;-63
2023/05/23 09:38:53;;;;;;;10.27;3.13;;;20.00;51.80;;;;;;5070870;28;20119;-62
2023/05/23 09:41:20;;;;;;;9.75;2.50;;;20.00;52.00;;;;;;5067722;28;20384;-62
2023/05/23 09:43:51;;;;;;;9.85;2.90;;;20.00;52.10;;;;;;5053499;28;20024;-62
2023/05/23 09:46:18;;;;;;;11.20;2.28;;;20.00;51.80;;;;;;5061140;28;20356;-62
2023/05/23 09:48:50;;;;;;;12.55;2.65;;;20.00;51.80;;;;;;5061965;28;20102;-62
2023/05/23 09:51:21;;;;;;;10.27;3.10;;;20.00;51.90;;;;;;5065075;28;20039;-62
2023/05/23 09:53:47;;;;;;;;;;;20.00;51.70;;;;;;5066184;28;20048;-62
2023/05/23 09:56:16;;;;;;;8.60;2.70;;;20.00;51.90;;;;;;5057817;28;19970;-62
2023/05/23 09:58:45;;;;;;;8.00;1.83;;;19.90;52.10;;;;;;5063493;28;20029;-62
2023/05/23 10:01:12;;;;;;;15.88;2.42;;;20.10;51.90;;;;;;5063026;28;20457;-62
2023/05/23 10:03:54;;;;;;;7.60;2.88;;;20.30;51.10;;;;;;5063715;28;20128;-63
2023/05/23 10:06:24;;;;;;;;;;;20.30;50.90;;;;;;5064848;28;20041;-63
2023/05/23 10:09:03;;;;;;;7.60;2.20;;;20.50;51.20;;;;;;5056720;28;19916;-63
2023/05/23 10:11:35;;;;;;;8.55;2.30;;;20.50;50.70;;;;;;5071168;28;20082;-63
2023/05/23 10:14:05;;;;;;;12.80;2.70;;;20.70;50.10;;;;;;5058088;28;20044;-62
2023/05/23 10:16:50;;;;;;;10.13;2.53;;;21.00;49.40;;;;;;5060657;28;20123;-62
2023/05/23 10:19:45;;;;;;;11.05;2.88;;;21.40;49.40;;;;;;5060451;28;20102;-63
2023/05/23 10:22:14;;;;;;;10.13;2.78;;;21.60;48.50;;;;;;5029854;28;20126;-62
2023/05/23 10:24:41;;;;;;;9.25;2.65;;;21.60;48.10;;;;;;5062292;28;20029;-62
2023/05/23 10:27:07;;;;;;;8.73;2.67;;;21.60;47.70;;;;;;5071338;28;20017;-62
2023/05/23 10:29:35;;;;;;;16.85;2.85;;;21.60;48.20;;;;;;5067075;28;20035;-63
2023/05/23 10:32:02;;;;;;;9.02;2.47;;;21.50;47.40;;;;;;5071325;28;20037;-62
2023/05/23 10:34:28;;;;;;;10.65;2.67;;;21.50;47.30;;;;;;5071726;28;20024;-63
2023/05/23 10:36:59;;;;;;;7.75;2.75;;;21.70;47.00;;;;;;5071502;28;20420;-63
2023/05/23 10:39:45;;;;;;;9.80;3.25;;;21.90;46.40;;;;;;5069970;28;20063;-63
2023/05/23 10:42:18;;;;;;;7.07;2.38;;;22.10;46.20;;;;;;5070672;28;20033;-63
2023/05/23 10:44:44;;;;;;;6.80;2.03;;;22.30;46.10;;;;;;5072725;28;20024;-63
2023/05/23 10:47:11;;;;;;;10.43;3.17;;;22.50;45.90;;;;;;5070016;28;20077;-63
2023/05/23 10:49:38;;;;;;;8.73;2.63;;;22.50;45.40;;;;;;5061735;28;20033;-63
2023/05/23 10:52:06;;;;;;;8.32;2.53;;;22.50;45.30;;;;;;5068237;28;20024;-63
2023/05/23 10:54:46;;;;;;;6.60;2.40;;;22.50;45.10;;;;;;5069930;28;20036;-62
2023/05/23 10:57:16;;;;;;;10.18;2.55;;;22.50;44.90;;;;;;5059275;28;20081;-62
2023/05/23 10:59:44;;;;;;;7.13;2.15;;;22.40;45.00;;;;;;5068218;28;20048;-63
2023/05/23 11:02:17;;;;;;;10.00;3.15;;;22.20;45.40;;;;;;5071463;28;20111;-63
2023/05/23 11:04:43;;;;;;;8.20;2.85;;;22.20;46.00;;;;;;5063465;28;20047;-63
2023/05/23 11:07:41;;;;;;;9.23;2.63;;;22.10;45.70;;;;;;5061195;28;20027;-63
2023/05/23 11:10:12;;;;;;;8.32;2.28;;;22.00;45.50;;;;;;5030572;28;20131;-62
2023/05/23 11:12:42;;;;;;;;;;;21.90;45.80;;;;;;5063477;28;20037;-62
2023/05/23 11:15:16;;;;;;;6.95;2.63;;;22.00;46.10;;;;;;5061659;28;19915;-63
2023/05/23 11:18:10;;;;;;;10.00;3.10;;;22.20;45.50;;;;;;5070062;28;20027;-63
2023/05/23 11:20:37;;;;;;;7.80;2.65;;;22.60;45.20;;;;;;5059805;28;20115;-63
2023/05/23 11:23:07;;;;;;;7.57;2.42;;;22.70;44.70;;;;;;5072104;28;20024;-62
2023/05/23 11:25:43;;;;;;;8.32;2.35;;;23.00;44.10;;;;;;5069646;28;20028;-62
2023/05/23 11:28:11;;;;;;;8.43;2.35;;;23.20;43.30;;;;;;5070194;28;20032;-62
2023/05/23 11:30:38;;;;;;;7.55;2.47;;;23.50;43.50;;;;;;5059527;28;20060;-62
2023/05/23 11:33:10;;;;;;;7.43;2.00;;;23.60;43.10;;;;;;5071034;28;20032;-63
2023/05/23 11:35:36;;;;;;;9.38;2.67;;;23.60;42.90;;;;;;5062949;28;20017;-62
2023/05/23 11:38:04;;;;;;;9.10;2.60;;;23.40;42.60;;;;;;5067857;28;20024;-62
2023/05/23 11:40:31;;;;;;;10.27;3.22;;;23.10;42.90;;;;;;5065381;28;20094;-63
2023/05/23 11:42:58;;;;;;;8.93;2.22;;;22.80;43.10;;;;;;5068694;28;20036;-63
2023/05/23 11:45:25;;;;;;;9.52;2.50;;;22.60;43.20;;;;;;5062338;28;20327;-64
2023/05/23 11:47:51;;;;;;;8.57;3.08;;;22.50;43.40;;;;;;5071147;28;20361;-63
2023/05/23 11:50:19;;;;;;;8.68;2.67;;;22.40;43.00;;;;;;5072904;28;20039;-63
2023/05/23 11:52:50;;;;;;;9.07;2.35;;;22.50;43.10;;;;;;5073806;28;20364;-63
2023/05/23 11:55:21;;;;;;;9.07;2.40;;;22.60;42.40;;;;;;5070908;28;20491;-63
2023/05/23 11:57:47;;;;;;;7.97;2.13;;;22.60;42.50;;;;;;5071717;28;20063;-63
2023/05/23 12:00:14;;;;;;;10.15;2.72;;;22.50;42.80;;;;;;5071346;28;20054;-63
2023/05/23 12:02:42;;;;;;;9.25;2.88;;;22.30;43.20;;;;;;5069227;28;20068;-63
2023/05/23 12:05:12;;;;;;;10.07;2.70;;;22.20;43.70;;;;;;5060700;28;20040;-63
2023/05/23 12:07:45;;;;;;;9.50;2.87;;;22.20;43.60;;;;;;5073513;28;20032;-63
2023/05/23 12:10:13;;;;;;;7.70;2.60;;;22.40;43.60;;;;;;5071573;28;20367;-63
2023/05/23 12:12:43;;;;;;;9.40;2.60;;;22.50;43.80;;;;;;5071129;28;20028;-63
2023/05/23 12:15:10;;;;;;;8.13;2.55;;;22.60;43.40;;;;;;5073968;28;20499;-63
2023/05/23 12:17:46;;;;;;;9.95;2.40;;;22.70;43.10;;;;;;5063880;28;20062;-63
2023/05/23 12:20:12;;;;;;;8.43;2.22;;;22.60;42.90;;;;;;5066439;28;20032;-63
2023/05/23 12:22:38;;;;;;;6.65;2.33;;;22.60;43.00;;;;;;5071799;28;20028;-63
2023/05/23 12:25:07;;;;;;;7.22;2.45;;;22.40;42.90;;;;;;5071163;28;20158;-63
2023/05/23 12:27:34;;;;;;;7.78;2.30;;;22.30;43.00;;;;;;5055541;28;20031;-63
2023/05/23 12:30:12;;;;;;;7.32;2.13;;;22.20;43.00;;;;;;5072312;28;20323;-63
2023/05/23 12:32:41;;;;;;;7.38;2.10;;;22.20;43.00;;;;;;5071257;28;20111;-63
2023/05/23 12:35:11;;;;;;;7.57;2.55;;;22.30;42.90;;;;;;5060965;28;20095;-63
2023/05/23 12:37:47;;;;;;;7.82;2.63;;;22.40;42.80;;;;;;5070373;28;20029;-62
2023/05/23 12:40:14;;;;;;;7.82;2.45;;;22.40;42.60;;;;;;5066504;28;20417;-64
2023/05/23 12:43:07;;;;;;;8.25;2.20;;;22.40;42.70;;;;;;5069599;28;20033;-63
2023/05/23 12:45:38;;;;;;;7.18;2.17;;;22.30;42.40;;;;;;5063376;28;20381;-63
2023/05/23 12:48:04;;;;;;;7.80;2.40;;;22.30;42.40;;;;;;5071791;28;20036;-63
2023/05/23 12:50:30;;;;;;;7.57;2.22;;;22.20;42.70;;;;;;5062631;28;20394;-64